sensor_id;sensor_type;location;lat;lon;timestamp;P1;durP1;ratioP1;P2;durP2;ratioP2
65230;SDS011;51813;40.666;16.602;2024-03-23T00:54:22;8.70;;;5.85;;
65230;SDS011;51813;40.666;16.602;2024-03-23T00:56:47;9.20;;;5.72;;
65230;SDS011;51813;40.666;16.602;2024-03-23T00:59:13;7.88;;;5.55;;
65230;SDS011;51813;40.666;16.602;2024-03-23T01:01:39;8.05;;;5.78;;
65230;SDS011;51813;40.666;16.602;2024-03-23T01:04:04;8.35;;;5.43;;
65230;SDS011;51813;40.666;16.602;2024-03-23T01:06:30;8.60;;;5.97;;
65230;SDS011;51813;40.666;16.602;2024-03-23T01:08:56;7.78;;;5.22;;
65230;SDS011;51813;40.666;16.602;2024-03-23T01:11:21;7.88;;;5.18;;
65230;SDS011;51813;40.666;16.602;2024-03-23T01:13:47;7.68;;;5.65;;
65230;SDS011;51813;40.666;16.602;2024-03-23T01:16:13;8.88;;;5.85;;
65230;SDS011;51813;40.666;16.602;2024-03-23T01:18:38;8.25;;;5.70;;
65230;SDS011;51813;40.666;16.602;2024-03-23T01:21:04;9.00;;;6.10;;
65230;SDS011;51813;40.666;16.602;2024-03-23T01:23:30;8.15;;;5.93;;
65230;SDS011;51813;40.666;16.602;2024-03-23T01:25:55;8.40;;;5.57;;
65230;SDS011;51813;40.666;16.602;2024-03-23T01:28:21;8.07;;;5.38;;
65230;SDS011;51813;40.666;16.602;2024-03-23T01:30:48;8.40;;;5.85;;
65230;SDS011;51813;40.666;16.602;2024-03-23T01:33:15;7.32;;;5.00;;
65230;SDS011;51813;40.666;16.602;2024-03-23T01:35:40;8.73;;;4.90;;
65230;SDS011;51813;40.666;16.602;2024-03-23T01:38:06;8.45;;;5.22;;
65230;SDS011;51813;40.666;16.602;2024-03-23T01:40:32;9.25;;;6.05;;
65230;SDS011;51813;40.666;16.602;2024-03-23T01:42:58;7.07;;;5.25;;
65230;SDS011;51813;40.666;16.602;2024-03-23T01:45:27;9.63;;;6.00;;
65230;SDS011;51813;40.666;16.602;2024-03-23T01:47:52;9.85;;;6.05;;
65230;SDS011;51813;40.666;16.602;2024-03-23T01:50:19;7.78;;;5.38;;
65230;SDS011;51813;40.666;16.602;2024-03-23T01:52:46;7.93;;;5.82;;
65230;SDS011;51813;40.666;16.602;2024-03-23T01:55:12;8.82;;;5.65;;
65230;SDS011;51813;40.666;16.602;2024-03-23T01:57:38;7.60;;;5.35;;
65230;SDS011;51813;40.666;16.602;2024-03-23T02:00:03;10.25;;;6.15;;
65230;SDS011;51813;40.666;16.602;2024-03-23T02:02:30;8.65;;;6.50;;
65230;SDS011;51813;40.666;16.602;2024-03-23T02:04:55;9.50;;;6.03;;
65230;SDS011;51813;40.666;16.602;2024-03-23T02:07:21;9.00;;;6.03;;
65230;SDS011;51813;40.666;16.602;2024-03-23T02:09:48;9.15;;;6.20;;
65230;SDS011;51813;40.666;16.602;2024-03-23T02:12:15;11.18;;;6.97;;
65230;SDS011;51813;40.666;16.602;2024-03-23T02:14:41;9.48;;;6.65;;
65230;SDS011;51813;40.666;16.602;2024-03-23T02:17:06;9.45;;;6.68;;
65230;SDS011;51813;40.666;16.602;2024-03-23T02:19:32;10.80;;;6.68;;
65230;SDS011;51813;40.666;16.602;2024-03-23T02:21:57;10.95;;;7.80;;
65230;SDS011;51813;40.666;16.602;2024-03-23T02:24:23;9.73;;;6.60;;
65230;SDS011;51813;40.666;16.602;2024-03-23T02:26:49;12.02;;;8.68;;
65230;SDS011;51813;40.666;16.602;2024-03-23T02:29:14;11.75;;;7.07;;
65230;SDS011;51813;40.666;16.602;2024-03-23T02:31:40;9.73;;;6.68;;
65230;SDS011;51813;40.666;16.602;2024-03-23T02:34:05;9.18;;;6.57;;
65230;SDS011;51813;40.666;16.602;2024-03-23T02:36:31;10.40;;;7.25;;
65230;SDS011;51813;40.666;16.602;2024-03-23T02:38:57;10.20;;;6.63;;
65230;SDS011;51813;40.666;16.602;2024-03-23T02:41:22;9.80;;;6.15;;
65230;SDS011;51813;40.666;16.602;2024-03-23T02:43:51;11.23;;;6.65;;
65230;SDS011;51813;40.666;16.602;2024-03-23T02:46:17;9.23;;;5.82;;
65230;SDS011;51813;40.666;16.602;2024-03-23T02:48:43;9.57;;;5.93;;
65230;SDS011;51813;40.666;16.602;2024-03-23T02:51:09;9.80;;;6.47;;
65230;SDS011;51813;40.666;16.602;2024-03-23T02:53:34;7.80;;;5.72;;
65230;SDS011;51813;40.666;16.602;2024-03-23T02:56:00;8.73;;;6.55;;
65230;SDS011;51813;40.666;16.602;2024-03-23T02:58:26;9.18;;;5.82;;
65230;SDS011;51813;40.666;16.602;2024-03-23T03:00:52;7.72;;;5.40;;
65230;SDS011;51813;40.666;16.602;2024-03-23T03:03:17;9.10;;;6.03;;
65230;SDS011;51813;40.666;16.602;2024-03-23T03:05:43;9.52;;;6.50;;
65230;SDS011;51813;40.666;16.602;2024-03-23T03:08:09;8.73;;;5.68;;
65230;SDS011;51813;40.666;16.602;2024-03-23T03:10:34;7.65;;;5.60;;
65230;SDS011;51813;40.666;16.602;2024-03-23T03:13:01;7.68;;;5.50;;
65230;SDS011;51813;40.666;16.602;2024-03-23T03:15:27;7.35;;;5.50;;
65230;SDS011;51813;40.666;16.602;2024-03-23T03:17:53;9.05;;;6.10;;
65230;SDS011;51813;40.666;16.602;2024-03-23T03:20:19;9.15;;;6.20;;
65230;SDS011;51813;40.666;16.602;2024-03-23T03:22:47;9.55;;;6.18;;
65230;SDS011;51813;40.666;16.602;2024-03-23T03:25:12;8.15;;;5.57;;
65230;SDS011;51813;40.666;16.602;2024-03-23T03:27:38;8.63;;;5.72;;
65230;SDS011;51813;40.666;16.602;2024-03-23T03:30:04;9.05;;;6.10;;
65230;SDS011;51813;40.666;16.602;2024-03-23T03:32:32;7.00;;;5.20;;
65230;SDS011;51813;40.666;16.602;2024-03-23T03:34:58;9.88;;;5.75;;
65230;SDS011;51813;40.666;16.602;2024-03-23T03:37:24;7.25;;;5.07;;
65230;SDS011;51813;40.666;16.602;2024-03-23T03:39:50;6.82;;;4.97;;
65230;SDS011;51813;40.666;16.602;2024-03-23T03:42:16;7.00;;;5.00;;
65230;SDS011;51813;40.666;16.602;2024-03-23T03:44:41;7.32;;;5.28;;
65230;SDS011;51813;40.666;16.602;2024-03-23T03:47:07;7.32;;;5.10;;
65230;SDS011;51813;40.666;16.602;2024-03-23T03:49:33;7.35;;;4.78;;
65230;SDS011;51813;40.666;16.602;2024-03-23T03:51:58;6.95;;;4.88;;
65230;SDS011;51813;40.666;16.602;2024-03-23T03:54:26;6.90;;;4.63;;
65230;SDS011;51813;40.666;16.602;2024-03-23T03:56:51;7.10;;;5.20;;
65230;SDS011;51813;40.666;16.602;2024-03-23T03:59:17;6.32;;;4.45;;
65230;SDS011;51813;40.666;16.602;2024-03-23T04:01:43;6.88;;;4.90;;
65230;SDS011;51813;40.666;16.602;2024-03-23T04:04:08;8.77;;;4.47;;
65230;SDS011;51813;40.666;16.602;2024-03-23T04:06:34;7.72;;;5.20;;
65230;SDS011;51813;40.666;16.602;2024-03-23T04:09:00;7.47;;;4.72;;
65230;SDS011;51813;40.666;16.602;2024-03-23T04:11:26;7.82;;;4.53;;
65230;SDS011;51813;40.666;16.602;2024-03-23T04:13:51;6.97;;;4.20;;
65230;SDS011;51813;40.666;16.602;2024-03-23T04:16:27;7.13;;;4.88;;
65230;SDS011;51813;40.666;16.602;2024-03-23T04:18:53;6.90;;;4.72;;
65230;SDS011;51813;40.666;16.602;2024-03-23T04:21:19;6.20;;;4.10;;
65230;SDS011;51813;40.666;16.602;2024-03-23T04:23:45;6.07;;;4.30;;
65230;SDS011;51813;40.666;16.602;2024-03-23T04:26:11;6.97;;;4.22;;
65230;SDS011;51813;40.666;16.602;2024-03-23T04:28:36;6.68;;;4.30;;
65230;SDS011;51813;40.666;16.602;2024-03-23T04:31:05;6.18;;;3.90;;
65230;SDS011;51813;40.666;16.602;2024-03-23T04:33:31;7.82;;;4.50;;
65230;SDS011;51813;40.666;16.602;2024-03-23T04:35:56;7.15;;;4.28;;
65230;SDS011;51813;40.666;16.602;2024-03-23T04:38:22;5.53;;;4.00;;
65230;SDS011;51813;40.666;16.602;2024-03-23T04:40:57;6.25;;;4.20;;
65230;SDS011;51813;40.666;16.602;2024-03-23T04:43:24;6.22;;;3.97;;
65230;SDS011;51813;40.666;16.602;2024-03-23T04:45:50;6.05;;;4.18;;
65230;SDS011;51813;40.666;16.602;2024-03-23T04:48:16;5.55;;;3.90;;
65230;SDS011;51813;40.666;16.602;2024-03-23T04:50:41;5.75;;;3.85;;
65230;SDS011;51813;40.666;16.602;2024-03-23T04:53:07;5.35;;;3.72;;
65230;SDS011;51813;40.666;16.602;2024-03-23T04:55:33;6.18;;;4.18;;
65230;SDS011;51813;40.666;16.602;2024-03-23T04:57:58;5.30;;;3.47;;
65230;SDS011;51813;40.666;16.602;2024-03-23T05:00:25;7.22;;;4.18;;
65230;SDS011;51813;40.666;16.602;2024-03-23T05:02:51;6.75;;;4.20;;
65230;SDS011;51813;40.666;16.602;2024-03-23T05:05:18;8.10;;;4.60;;
65230;SDS011;51813;40.666;16.602;2024-03-23T05:07:43;6.00;;;3.60;;
65230;SDS011;51813;40.666;16.602;2024-03-23T05:10:09;6.45;;;3.90;;
65230;SDS011;51813;40.666;16.602;2024-03-23T05:12:39;5.65;;;3.85;;
65230;SDS011;51813;40.666;16.602;2024-03-23T05:15:05;6.40;;;4.10;;
65230;SDS011;51813;40.666;16.602;2024-03-23T05:17:32;5.60;;;3.83;;
65230;SDS011;51813;40.666;16.602;2024-03-23T05:19:58;6.43;;;3.75;;
65230;SDS011;51813;40.666;16.602;2024-03-23T05:22:24;5.70;;;4.38;;
65230;SDS011;51813;40.666;16.602;2024-03-23T05:24:52;5.30;;;3.70;;
65230;SDS011;51813;40.666;16.602;2024-03-23T05:27:18;6.05;;;4.43;;
65230;SDS011;51813;40.666;16.602;2024-03-23T05:29:43;5.00;;;3.60;;
65230;SDS011;51813;40.666;16.602;2024-03-23T05:32:09;5.55;;;3.47;;
65230;SDS011;51813;40.666;16.602;2024-03-23T05:34:35;6.43;;;3.72;;
65230;SDS011;51813;40.666;16.602;2024-03-23T05:37:00;5.00;;;3.58;;
65230;SDS011;51813;40.666;16.602;2024-03-23T05:39:26;6.15;;;4.47;;
65230;SDS011;51813;40.666;16.602;2024-03-23T05:41:52;6.68;;;3.97;;
65230;SDS011;51813;40.666;16.602;2024-03-23T05:44:18;5.13;;;3.75;;
65230;SDS011;51813;40.666;16.602;2024-03-23T05:46:43;6.85;;;4.60;;
65230;SDS011;51813;40.666;16.602;2024-03-23T05:49:13;6.28;;;4.10;;
65230;SDS011;51813;40.666;16.602;2024-03-23T05:51:39;5.65;;;3.97;;
65230;SDS011;51813;40.666;16.602;2024-03-23T05:54:05;8.65;;;4.55;;
65230;SDS011;51813;40.666;16.602;2024-03-23T05:56:30;5.18;;;3.58;;
65230;SDS011;51813;40.666;16.602;2024-03-23T05:58:56;8.82;;;4.93;;
65230;SDS011;51813;40.666;16.602;2024-03-23T06:01:22;7.13;;;4.78;;
65230;SDS011;51813;40.666;16.602;2024-03-23T06:03:48;6.80;;;4.93;;
65230;SDS011;51813;40.666;16.602;2024-03-23T06:06:14;5.93;;;4.10;;
65230;SDS011;51813;40.666;16.602;2024-03-23T06:08:39;5.70;;;4.25;;
65230;SDS011;51813;40.666;16.602;2024-03-23T06:11:05;5.63;;;3.60;;
65230;SDS011;51813;40.666;16.602;2024-03-23T06:13:31;7.55;;;4.18;;
65230;SDS011;51813;40.666;16.602;2024-03-23T06:15:58;6.43;;;3.60;;
65230;SDS011;51813;40.666;16.602;2024-03-23T06:18:24;5.30;;;3.83;;
65230;SDS011;51813;40.666;16.602;2024-03-23T06:20:50;5.38;;;3.70;;
65230;SDS011;51813;40.666;16.602;2024-03-23T06:23:16;5.47;;;3.90;;
65230;SDS011;51813;40.666;16.602;2024-03-23T06:25:42;5.90;;;4.35;;
65230;SDS011;51813;40.666;16.602;2024-03-23T06:28:08;6.07;;;4.50;;
65230;SDS011;51813;40.666;16.602;2024-03-23T06:30:33;6.65;;;4.28;;
65230;SDS011;51813;40.666;16.602;2024-03-23T06:32:59;6.57;;;4.32;;
65230;SDS011;51813;40.666;16.602;2024-03-23T06:35:25;6.32;;;4.63;;
65230;SDS011;51813;40.666;16.602;2024-03-23T06:37:50;5.72;;;4.03;;
65230;SDS011;51813;40.666;16.602;2024-03-23T06:40:16;6.72;;;4.63;;
65230;SDS011;51813;40.666;16.602;2024-03-23T06:42:42;6.78;;;4.60;;
65230;SDS011;51813;40.666;16.602;2024-03-23T06:45:07;8.32;;;5.30;;
65230;SDS011;51813;40.666;16.602;2024-03-23T06:47:33;9.10;;;5.45;;
65230;SDS011;51813;40.666;16.602;2024-03-23T06:49:59;5.60;;;4.32;;
65230;SDS011;51813;40.666;16.602;2024-03-23T06:52:28;6.57;;;4.28;;
65230;SDS011;51813;40.666;16.602;2024-03-23T06:54:55;6.70;;;4.50;;
65230;SDS011;51813;40.666;16.602;2024-03-23T06:57:20;6.82;;;4.80;;
65230;SDS011;51813;40.666;16.602;2024-03-23T06:59:46;6.05;;;4.70;;
65230;SDS011;51813;40.666;16.602;2024-03-23T07:02:12;6.85;;;4.50;;
65230;SDS011;51813;40.666;16.602;2024-03-23T07:04:38;5.57;;;4.30;;
65230;SDS011;51813;40.666;16.602;2024-03-23T07:07:06;6.40;;;4.70;;
65230;SDS011;51813;40.666;16.602;2024-03-23T07:09:32;7.15;;;4.40;;
65230;SDS011;51813;40.666;16.602;2024-03-23T07:11:57;7.07;;;4.15;;
65230;SDS011;51813;40.666;16.602;2024-03-23T07:14:23;6.25;;;4.22;;
65230;SDS011;51813;40.666;16.602;2024-03-23T07:16:49;6.95;;;4.18;;
65230;SDS011;51813;40.666;16.602;2024-03-23T07:19:15;6.22;;;3.95;;
65230;SDS011;51813;40.666;16.602;2024-03-23T07:21:44;4.93;;;3.58;;
65230;SDS011;51813;40.666;16.602;2024-03-23T07:24:10;5.47;;;3.90;;
65230;SDS011;51813;40.666;16.602;2024-03-23T07:26:36;4.38;;;3.47;;
65230;SDS011;51813;40.666;16.602;2024-03-23T07:29:06;5.18;;;3.42;;
65230;SDS011;51813;40.666;16.602;2024-03-23T07:31:32;5.07;;;3.80;;
65230;SDS011;51813;40.666;16.602;2024-03-23T07:33:57;6.47;;;3.97;;
65230;SDS011;51813;40.666;16.602;2024-03-23T07:36:23;4.20;;;3.17;;
65230;SDS011;51813;40.666;16.602;2024-03-23T07:38:49;5.72;;;3.75;;
65230;SDS011;51813;40.666;16.602;2024-03-23T07:41:16;4.90;;;3.80;;
65230;SDS011;51813;40.666;16.602;2024-03-23T07:43:43;4.85;;;3.65;;
65230;SDS011;51813;40.666;16.602;2024-03-23T07:46:10;4.50;;;3.30;;
65230;SDS011;51813;40.666;16.602;2024-03-23T07:48:37;5.00;;;3.55;;
65230;SDS011;51813;40.666;16.602;2024-03-23T07:51:03;5.18;;;3.20;;
65230;SDS011;51813;40.666;16.602;2024-03-23T07:53:32;4.50;;;3.30;;
65230;SDS011;51813;40.666;16.602;2024-03-23T07:56:01;5.07;;;3.20;;
65230;SDS011;51813;40.666;16.602;2024-03-23T07:58:31;4.47;;;3.40;;
65230;SDS011;51813;40.666;16.602;2024-03-23T08:01:02;4.53;;;3.00;;
65230;SDS011;51813;40.666;16.602;2024-03-23T08:03:29;4.60;;;3.13;;
65230;SDS011;51813;40.666;16.602;2024-03-23T08:05:55;4.30;;;3.15;;
65230;SDS011;51813;40.666;16.602;2024-03-23T08:08:20;4.90;;;3.33;;
65230;SDS011;51813;40.666;16.602;2024-03-23T08:13:15;5.72;;;2.88;;
65230;SDS011;51813;40.666;16.602;2024-03-23T08:15:41;4.75;;;3.47;;
65230;SDS011;51813;40.666;16.602;2024-03-23T08:18:07;5.05;;;3.40;;
65230;SDS011;51813;40.666;16.602;2024-03-23T08:20:32;4.78;;;3.10;;
65230;SDS011;51813;40.666;16.602;2024-03-23T08:22:58;4.53;;;2.95;;
65230;SDS011;51813;40.666;16.602;2024-03-23T08:25:23;4.28;;;3.13;;
65230;SDS011;51813;40.666;16.602;2024-03-23T08:27:49;4.20;;;2.65;;
65230;SDS011;51813;40.666;16.602;2024-03-23T08:30:15;4.13;;;2.97;;
65230;SDS011;51813;40.666;16.602;2024-03-23T08:32:41;4.07;;;2.85;;
65230;SDS011;51813;40.666;16.602;2024-03-23T08:35:07;3.83;;;2.60;;
65230;SDS011;51813;40.666;16.602;2024-03-23T08:37:33;4.82;;;3.03;;
65230;SDS011;51813;40.666;16.602;2024-03-23T08:39:59;4.25;;;2.83;;
65230;SDS011;51813;40.666;16.602;2024-03-23T08:42:24;4.68;;;3.42;;
65230;SDS011;51813;40.666;16.602;2024-03-23T08:44:50;4.05;;;2.85;;
65230;SDS011;51813;40.666;16.602;2024-03-23T08:47:16;6.32;;;2.90;;
65230;SDS011;51813;40.666;16.602;2024-03-23T08:49:41;4.63;;;2.80;;
65230;SDS011;51813;40.666;16.602;2024-03-23T08:52:07;3.80;;;2.78;;
65230;SDS011;51813;40.666;16.602;2024-03-23T08:54:33;4.38;;;3.03;;
65230;SDS011;51813;40.666;16.602;2024-03-23T08:56:59;4.40;;;2.95;;
65230;SDS011;51813;40.666;16.602;2024-03-23T08:59:25;3.88;;;2.63;;
65230;SDS011;51813;40.666;16.602;2024-03-23T09:01:51;6.05;;;3.08;;
65230;SDS011;51813;40.666;16.602;2024-03-23T09:04:17;4.97;;;3.13;;
65230;SDS011;51813;40.666;16.602;2024-03-23T09:06:43;5.88;;;3.15;;
65230;SDS011;51813;40.666;16.602;2024-03-23T09:09:08;5.18;;;3.13;;
65230;SDS011;51813;40.666;16.602;2024-03-23T09:11:34;4.40;;;3.05;;
65230;SDS011;51813;40.666;16.602;2024-03-23T09:14:00;4.10;;;3.08;;
65230;SDS011;51813;40.666;16.602;2024-03-23T09:16:25;4.20;;;2.90;;
65230;SDS011;51813;40.666;16.602;2024-03-23T09:18:51;4.05;;;2.80;;
65230;SDS011;51813;40.666;16.602;2024-03-23T09:21:17;3.88;;;2.70;;
65230;SDS011;51813;40.666;16.602;2024-03-23T09:23:44;4.28;;;3.03;;
65230;SDS011;51813;40.666;16.602;2024-03-23T09:26:10;3.75;;;2.95;;
65230;SDS011;51813;40.666;16.602;2024-03-23T09:28:36;5.03;;;2.92;;
65230;SDS011;51813;40.666;16.602;2024-03-23T09:31:02;4.20;;;2.90;;
65230;SDS011;51813;40.666;16.602;2024-03-23T09:33:32;4.57;;;2.83;;
65230;SDS011;51813;40.666;16.602;2024-03-23T09:36:02;6.95;;;2.83;;
65230;SDS011;51813;40.666;16.602;2024-03-23T09:38:28;8.98;;;3.47;;
65230;SDS011;51813;40.666;16.602;2024-03-23T09:40:54;6.90;;;3.25;;
65230;SDS011;51813;40.666;16.602;2024-03-23T09:43:19;5.40;;;2.88;;
65230;SDS011;51813;40.666;16.602;2024-03-23T09:45:46;5.20;;;2.75;;
65230;SDS011;51813;40.666;16.602;2024-03-23T09:48:12;6.72;;;3.75;;
65230;SDS011;51813;40.666;16.602;2024-03-23T09:50:38;7.10;;;3.53;;
65230;SDS011;51813;40.666;16.602;2024-03-23T09:53:07;4.78;;;3.00;;
65230;SDS011;51813;40.666;16.602;2024-03-23T09:55:34;4.65;;;2.85;;
65230;SDS011;51813;40.666;16.602;2024-03-23T09:58:01;5.10;;;3.20;;
65230;SDS011;51813;40.666;16.602;2024-03-23T10:00:27;4.75;;;3.30;;
65230;SDS011;51813;40.666;16.602;2024-03-23T10:02:55;5.20;;;2.80;;
65230;SDS011;51813;40.666;16.602;2024-03-23T10:05:26;3.92;;;2.78;;
65230;SDS011;51813;40.666;16.602;2024-03-23T10:07:52;5.55;;;2.92;;
65230;SDS011;51813;40.666;16.602;2024-03-23T10:10:18;4.10;;;2.72;;
65230;SDS011;51813;40.666;16.602;2024-03-23T10:12:45;4.35;;;2.90;;
65230;SDS011;51813;40.666;16.602;2024-03-23T10:15:23;4.53;;;3.03;;
65230;SDS011;51813;40.666;16.602;2024-03-23T10:17:49;6.70;;;3.00;;
65230;SDS011;51813;40.666;16.602;2024-03-23T10:20:19;5.40;;;2.70;;
65230;SDS011;51813;40.666;16.602;2024-03-23T10:22:47;5.45;;;2.90;;
65230;SDS011;51813;40.666;16.602;2024-03-23T10:25:16;4.18;;;2.90;;
65230;SDS011;51813;40.666;16.602;2024-03-23T10:27:43;4.90;;;3.00;;
65230;SDS011;51813;40.666;16.602;2024-03-23T10:30:09;3.72;;;2.80;;
65230;SDS011;51813;40.666;16.602;2024-03-23T10:32:37;5.50;;;2.95;;
65230;SDS011;51813;40.666;16.602;2024-03-23T10:35:21;4.20;;;2.80;;
65230;SDS011;51813;40.666;16.602;2024-03-23T10:37:47;3.28;;;2.35;;
65230;SDS011;51813;40.666;16.602;2024-03-23T10:40:16;4.15;;;2.55;;
65230;SDS011;51813;40.666;16.602;2024-03-23T10:42:43;4.55;;;2.70;;
65230;SDS011;51813;40.666;16.602;2024-03-23T10:45:10;4.43;;;2.95;;
65230;SDS011;51813;40.666;16.602;2024-03-23T10:47:36;3.45;;;2.58;;
65230;SDS011;51813;40.666;16.602;2024-03-23T10:50:05;3.50;;;2.38;;
65230;SDS011;51813;40.666;16.602;2024-03-23T10:52:34;3.85;;;2.65;;
65230;SDS011;51813;40.666;16.602;2024-03-23T10:55:01;4.43;;;2.53;;
65230;SDS011;51813;40.666;16.602;2024-03-23T10:57:31;3.83;;;2.55;;
65230;SDS011;51813;40.666;16.602;2024-03-23T11:00:05;4.25;;;2.35;;
65230;SDS011;51813;40.666;16.602;2024-03-23T11:02:31;4.38;;;2.70;;
65230;SDS011;51813;40.666;16.602;2024-03-23T11:04:57;4.20;;;2.25;;
65230;SDS011;51813;40.666;16.602;2024-03-23T11:09:52;4.05;;;2.65;;
65230;SDS011;51813;40.666;16.602;2024-03-23T11:14:48;3.75;;;2.67;;
65230;SDS011;51813;40.666;16.602;2024-03-23T11:17:34;3.80;;;2.47;;
65230;SDS011;51813;40.666;16.602;2024-03-23T11:20:00;4.72;;;2.88;;
65230;SDS011;51813;40.666;16.602;2024-03-23T11:25:24;3.88;;;2.40;;
65230;SDS011;51813;40.666;16.602;2024-03-23T11:27:52;3.93;;;2.30;;
65230;SDS011;51813;40.666;16.602;2024-03-23T11:30:19;4.57;;;2.53;;
65230;SDS011;51813;40.666;16.602;2024-03-23T11:32:50;3.45;;;2.38;;
65230;SDS011;51813;40.666;16.602;2024-03-23T11:40:28;3.90;;;2.47;;
65230;SDS011;51813;40.666;16.602;2024-03-23T11:42:58;4.55;;;2.88;;
65230;SDS011;51813;40.666;16.602;2024-03-23T11:45:25;5.88;;;2.85;;
65230;SDS011;51813;40.666;16.602;2024-03-23T11:48:03;4.45;;;2.65;;
65230;SDS011;51813;40.666;16.602;2024-03-23T11:50:29;3.63;;;2.60;;
65230;SDS011;51813;40.666;16.602;2024-03-23T11:55:42;4.35;;;2.80;;
65230;SDS011;51813;40.666;16.602;2024-03-23T11:58:08;4.20;;;3.03;;
65230;SDS011;51813;40.666;16.602;2024-03-23T12:00:35;4.38;;;2.83;;
65230;SDS011;51813;40.666;16.602;2024-03-23T12:03:03;4.68;;;2.75;;
65230;SDS011;51813;40.666;16.602;2024-03-23T12:05:30;3.83;;;2.70;;
65230;SDS011;51813;40.666;16.602;2024-03-23T12:11:12;3.80;;;2.70;;
65230;SDS011;51813;40.666;16.602;2024-03-23T12:13:42;4.63;;;2.85;;
65230;SDS011;51813;40.666;16.602;2024-03-23T12:18:40;3.70;;;2.65;;
65230;SDS011;51813;40.666;16.602;2024-03-23T12:21:07;3.95;;;2.80;;
65230;SDS011;51813;40.666;16.602;2024-03-23T12:23:34;4.60;;;2.65;;
65230;SDS011;51813;40.666;16.602;2024-03-23T12:26:00;5.03;;;3.03;;
65230;SDS011;51813;40.666;16.602;2024-03-23T12:28:26;3.90;;;2.67;;
65230;SDS011;51813;40.666;16.602;2024-03-23T12:30:52;4.20;;;2.78;;
65230;SDS011;51813;40.666;16.602;2024-03-23T12:33:19;3.47;;;2.45;;
65230;SDS011;51813;40.666;16.602;2024-03-23T12:35:46;6.53;;;2.97;;
65230;SDS011;51813;40.666;16.602;2024-03-23T12:38:12;4.40;;;3.10;;
65230;SDS011;51813;40.666;16.602;2024-03-23T12:40:37;4.07;;;2.58;;
65230;SDS011;51813;40.666;16.602;2024-03-23T12:43:03;4.57;;;3.28;;
65230;SDS011;51813;40.666;16.602;2024-03-23T12:45:29;4.68;;;2.80;;
65230;SDS011;51813;40.666;16.602;2024-03-23T12:47:54;4.00;;;2.50;;
65230;SDS011;51813;40.666;16.602;2024-03-23T12:50:20;4.43;;;2.63;;
65230;SDS011;51813;40.666;16.602;2024-03-23T12:52:47;3.58;;;2.53;;
65230;SDS011;51813;40.666;16.602;2024-03-23T12:55:12;4.00;;;2.75;;
65230;SDS011;51813;40.666;16.602;2024-03-23T12:57:38;3.20;;;2.38;;
65230;SDS011;51813;40.666;16.602;2024-03-23T13:00:05;4.68;;;2.70;;
65230;SDS011;51813;40.666;16.602;2024-03-23T13:02:34;4.10;;;2.70;;
65230;SDS011;51813;40.666;16.602;2024-03-23T13:05:00;4.30;;;2.90;;
65230;SDS011;51813;40.666;16.602;2024-03-23T13:07:26;3.70;;;2.63;;
65230;SDS011;51813;40.666;16.602;2024-03-23T13:09:51;3.78;;;2.58;;
65230;SDS011;51813;40.666;16.602;2024-03-23T13:12:20;3.88;;;2.67;;
65230;SDS011;51813;40.666;16.602;2024-03-23T13:14:46;4.18;;;2.63;;
65230;SDS011;51813;40.666;16.602;2024-03-23T13:17:12;7.40;;;2.90;;
65230;SDS011;51813;40.666;16.602;2024-03-23T13:19:38;5.15;;;2.60;;
65230;SDS011;51813;40.666;16.602;2024-03-23T13:22:04;3.80;;;2.67;;
65230;SDS011;51813;40.666;16.602;2024-03-23T13:24:30;4.03;;;2.60;;
65230;SDS011;51813;40.666;16.602;2024-03-23T13:26:56;4.30;;;2.70;;
65230;SDS011;51813;40.666;16.602;2024-03-23T13:29:22;4.50;;;2.72;;
65230;SDS011;51813;40.666;16.602;2024-03-23T13:31:49;4.65;;;3.00;;
65230;SDS011;51813;40.666;16.602;2024-03-23T13:34:16;4.72;;;2.42;;
65230;SDS011;51813;40.666;16.602;2024-03-23T13:36:42;4.05;;;2.50;;
65230;SDS011;51813;40.666;16.602;2024-03-23T13:39:11;3.60;;;2.50;;
65230;SDS011;51813;40.666;16.602;2024-03-23T13:41:38;5.10;;;2.38;;
65230;SDS011;51813;40.666;16.602;2024-03-23T13:44:07;3.85;;;2.83;;
65230;SDS011;51813;40.666;16.602;2024-03-23T13:49:01;3.80;;;2.70;;
65230;SDS011;51813;40.666;16.602;2024-03-23T13:51:27;3.55;;;2.53;;
65230;SDS011;51813;40.666;16.602;2024-03-23T13:53:53;3.25;;;2.38;;
65230;SDS011;51813;40.666;16.602;2024-03-23T13:56:20;3.88;;;2.50;;
65230;SDS011;51813;40.666;16.602;2024-03-23T13:58:46;4.38;;;2.60;;
65230;SDS011;51813;40.666;16.602;2024-03-23T14:01:13;3.92;;;2.60;;
65230;SDS011;51813;40.666;16.602;2024-03-23T14:03:42;4.63;;;2.63;;
65230;SDS011;51813;40.666;16.602;2024-03-23T14:06:09;3.90;;;2.60;;
65230;SDS011;51813;40.666;16.602;2024-03-23T14:08:35;4.05;;;2.90;;
65230;SDS011;51813;40.666;16.602;2024-03-23T14:11:04;3.60;;;2.47;;
65230;SDS011;51813;40.666;16.602;2024-03-23T14:13:30;3.88;;;2.50;;
65230;SDS011;51813;40.666;16.602;2024-03-23T14:15:57;4.47;;;2.80;;
65230;SDS011;51813;40.666;16.602;2024-03-23T14:18:23;3.65;;;2.65;;
65230;SDS011;51813;40.666;16.602;2024-03-23T14:20:49;3.67;;;2.67;;
65230;SDS011;51813;40.666;16.602;2024-03-23T14:23:15;4.32;;;2.70;;
65230;SDS011;51813;40.666;16.602;2024-03-23T14:25:42;4.20;;;2.42;;
65230;SDS011;51813;40.666;16.602;2024-03-23T14:28:07;4.47;;;2.90;;
65230;SDS011;51813;40.666;16.602;2024-03-23T14:30:39;4.32;;;2.75;;
65230;SDS011;51813;40.666;16.602;2024-03-23T14:33:05;3.30;;;2.50;;
65230;SDS011;51813;40.666;16.602;2024-03-23T14:35:31;4.80;;;3.00;;
65230;SDS011;51813;40.666;16.602;2024-03-23T14:37:58;3.70;;;2.72;;
65230;SDS011;51813;40.666;16.602;2024-03-23T14:40:23;4.20;;;2.90;;
65230;SDS011;51813;40.666;16.602;2024-03-23T14:42:52;4.72;;;2.75;;
65230;SDS011;51813;40.666;16.602;2024-03-23T14:45:19;4.05;;;3.00;;
65230;SDS011;51813;40.666;16.602;2024-03-23T14:47:46;3.92;;;2.90;;
65230;SDS011;51813;40.666;16.602;2024-03-23T14:50:11;3.65;;;2.70;;
65230;SDS011;51813;40.666;16.602;2024-03-23T14:52:40;4.03;;;2.72;;
65230;SDS011;51813;40.666;16.602;2024-03-23T14:55:07;3.75;;;2.70;;
65230;SDS011;51813;40.666;16.602;2024-03-23T14:57:34;4.30;;;3.00;;
65230;SDS011;51813;40.666;16.602;2024-03-23T15:00:00;3.78;;;2.75;;
65230;SDS011;51813;40.666;16.602;2024-03-23T15:02:25;4.45;;;2.80;;
65230;SDS011;51813;40.666;16.602;2024-03-23T15:04:53;4.00;;;3.00;;
65230;SDS011;51813;40.666;16.602;2024-03-23T15:07:19;4.32;;;2.78;;
65230;SDS011;51813;40.666;16.602;2024-03-23T15:09:45;3.47;;;2.58;;
65230;SDS011;51813;40.666;16.602;2024-03-23T15:12:10;4.07;;;2.78;;
65230;SDS011;51813;40.666;16.602;2024-03-23T15:14:36;3.53;;;2.65;;
65230;SDS011;51813;40.666;16.602;2024-03-23T15:17:02;5.55;;;3.00;;
65230;SDS011;51813;40.666;16.602;2024-03-23T15:19:32;3.75;;;2.88;;
65230;SDS011;51813;40.666;16.602;2024-03-23T15:21:57;3.88;;;2.55;;
65230;SDS011;51813;40.666;16.602;2024-03-23T15:24:23;4.10;;;2.72;;
65230;SDS011;51813;40.666;16.602;2024-03-23T15:26:49;5.65;;;3.00;;
65230;SDS011;51813;40.666;16.602;2024-03-23T15:29:17;4.55;;;2.90;;
65230;SDS011;51813;40.666;16.602;2024-03-23T15:31:43;5.45;;;3.10;;
65230;SDS011;51813;40.666;16.602;2024-03-23T15:34:10;4.65;;;2.95;;
65230;SDS011;51813;40.666;16.602;2024-03-23T15:36:37;3.88;;;2.70;;
65230;SDS011;51813;40.666;16.602;2024-03-23T15:39:04;4.78;;;3.30;;
65230;SDS011;51813;40.666;16.602;2024-03-23T15:41:30;4.45;;;2.70;;
65230;SDS011;51813;40.666;16.602;2024-03-23T15:43:56;5.43;;;3.17;;
65230;SDS011;51813;40.666;16.602;2024-03-23T15:46:21;4.43;;;2.70;;
65230;SDS011;51813;40.666;16.602;2024-03-23T15:48:47;5.22;;;2.78;;